Hong Kong International Airport
VHHH : rendu visible

Aérodrome :











RETROUVEZ-NOUS SUR...

 
LOGIN :

S'inscrire | Disclaimer

   EN    FR    IT 

 









Légende :    VFR   VFR Marginal   IFR   IFR Intensif   IFR Très Intensif
Visi : 
Plafond : 
>= 8 km
>= 3000ft
5 à 8 km
1000 à 3000 ft
1500m à 5 km
500 à 1000 ft
800 à 1500m
200 à 500 ft
< 800m
< 200 ft
Symboles :   Orages  Brouillard  Fortes neiges  Fortes précipitations  Vent > 20 kt






- Altitude de l'aérodrome : 28 ft
- Code IATA : HKG


VHHH - Hong Kong International

DERNIER METAR :
  • 150430Z 07011KT 9999 FEW018 SCT028 22/16 Q1020 NOSIG

METARs EXPIRÉS :
  • 150400Z 07013KT 9999 FEW018 SCT028 22/16 Q1020 NOSIG
  • 150330Z 08014KT 9999 FEW018 SCT028 21/16 Q1020 NOSIG
  • 150300Z 08014KT 9999 FEW015 SCT028 22/16 Q1021 NOSIG
  • 150230Z 08013KT 9999 FEW015 SCT025 21/16 Q1021 NOSIG
  • 150200Z 10014KT 9999 FEW015 SCT028 21/16 Q1021 NOSIG

TAF TAF VHHH
Valide du 15 à 00h jusqu'au 16 à 06h UTC


142300Z 1500/1606 10010KT 9000 FEW020 SCT040 TX23/1506Z TX24/1606Z TN20/1523Z
TEMPO 1604/1606 27010KT



MET'MAP, la Météo Aéronautique d'un coup d'oeil ! - Copyright ORBIFLY Décembre 2007 - Disclaimer

ORBIFLY MET'MAP TEAM :

Programmation & Développement : Alexandra Zaïnal
Sur une idée originale de : Baudouin d'Aumeries
Assistance à la programmation : Marc-Olivier Méhu
Soutien technique & logistique : Manuel Goepfert

Contact : metmap@orbifly.com




SOURCES & CREDITS :

   NOAA       Earth
Advisory